sensor_id;sensor_type;location;lat;lon;timestamp;P1;P2;P0
80692;PMS5003;70055;39.436;-77.514;2023-05-10T00:00:53;1;1;
80692;PMS5003;70055;39.436;-77.514;2023-05-10T00:03:21;0;0;
80692;PMS5003;70055;39.436;-77.514;2023-05-10T00:05:49;1;1;
80692;PMS5003;70055;39.436;-77.514;2023-05-10T00:08:18;1;1;
80692;PMS5003;70055;39.436;-77.514;2023-05-10T00:10:46;1;1;
80692;PMS5003;70055;39.436;-77.514;2023-05-10T00:13:14;0;0;
80692;PMS5003;70055;39.436;-77.514;2023-05-10T00:15:42;1;1;
80692;PMS5003;70055;39.436;-77.514;2023-05-10T00:18:10;2;2;
80692;PMS5003;70055;39.436;-77.514;2023-05-10T00:20:39;1;1;
80692;PMS5003;70055;39.436;-77.514;2023-05-10T00:23:07;1;1;
80692;PMS5003;70055;39.436;-77.514;2023-05-10T00:25:35;1;1;
80692;PMS5003;70055;39.436;-77.514;2023-05-10T00:28:03;1;1;
80692;PMS5003;70055;39.436;-77.514;2023-05-10T00:30:31;1;1;
80692;PMS5003;70055;39.436;-77.514;2023-05-10T00:33:00;0;0;
80692;PMS5003;70055;39.436;-77.514;2023-05-10T00:35:28;1;1;
80692;PMS5003;70055;39.436;-77.514;2023-05-10T00:37:56;1;1;
80692;PMS5003;70055;39.436;-77.514;2023-05-10T00:40:24;0;0;
80692;PMS5003;70055;39.436;-77.514;2023-05-10T00:42:52;1;1;
80692;PMS5003;70055;39.436;-77.514;2023-05-10T00:45:20;0;0;
80692;PMS5003;70055;39.436;-77.514;2023-05-10T00:47:48;0;0;
80692;PMS5003;70055;39.436;-77.514;2023-05-10T00:50:16;1;1;
80692;PMS5003;70055;39.436;-77.514;2023-05-10T00:52:45;1;1;
80692;PMS5003;70055;39.436;-77.514;2023-05-10T00:55:13;1;1;
80692;PMS5003;70055;39.436;-77.514;2023-05-10T00:57:41;1;1;
80692;PMS5003;70055;39.436;-77.514;2023-05-10T01:00:11;1;1;
80692;PMS5003;70055;39.436;-77.514;2023-05-10T01:02:40;1;1;
80692;PMS5003;70055;39.436;-77.514;2023-05-10T01:05:08;1;1;
80692;PMS5003;70055;39.436;-77.514;2023-05-10T01:07:38;1;1;
80692;PMS5003;70055;39.436;-77.514;2023-05-10T01:10:06;0;0;
80692;PMS5003;70055;39.436;-77.514;2023-05-10T01:12:35;1;1;
80692;PMS5003;70055;39.436;-77.514;2023-05-10T01:15:06;1;1;
80692;PMS5003;70055;39.436;-77.514;2023-05-10T01:17:37;1;1;
80692;PMS5003;70055;39.436;-77.514;2023-05-10T01:20:08;1;1;
80692;PMS5003;70055;39.436;-77.514;2023-05-10T01:22:47;1;1;
80692;PMS5003;70055;39.436;-77.514;2023-05-10T01:26:15;1;1;
80692;PMS5003;70055;39.436;-77.514;2023-05-10T01:29:07;1;1;
80692;PMS5003;70055;39.436;-77.514;2023-05-10T01:32:00;0;0;
80692;PMS5003;70055;39.436;-77.514;2023-05-10T01:34:42;0;0;
80692;PMS5003;70055;39.436;-77.514;2023-05-10T01:37:19;1;1;
80692;PMS5003;70055;39.436;-77.514;2023-05-10T01:39:50;1;1;
80692;PMS5003;70055;39.436;-77.514;2023-05-10T01:42:28;1;1;
80692;PMS5003;70055;39.436;-77.514;2023-05-10T01:45:06;1;1;
80692;PMS5003;70055;39.436;-77.514;2023-05-10T01:47:43;1;1;
80692;PMS5003;70055;39.436;-77.514;2023-05-10T01:50:15;1;1;
80692;PMS5003;70055;39.436;-77.514;2023-05-10T01:52:47;1;1;
80692;PMS5003;70055;39.436;-77.514;2023-05-10T01:55:20;2;2;
80692;PMS5003;70055;39.436;-77.514;2023-05-10T01:57:52;1;1;
80692;PMS5003;70055;39.436;-77.514;2023-05-10T02:00:25;1;1;
80692;PMS5003;70055;39.436;-77.514;2023-05-10T02:02:55;1;1;
80692;PMS5003;70055;39.436;-77.514;2023-05-10T02:05:24;2;2;
80692;PMS5003;70055;39.436;-77.514;2023-05-10T02:07:56;1;1;
80692;PMS5003;70055;39.436;-77.514;2023-05-10T02:10:26;1;1;
80692;PMS5003;70055;39.436;-77.514;2023-05-10T02:12:55;1;1;
80692;PMS5003;70055;39.436;-77.514;2023-05-10T02:15:27;1;1;
80692;PMS5003;70055;39.436;-77.514;2023-05-10T02:17:57;1;1;
80692;PMS5003;70055;39.436;-77.514;2023-05-10T02:20:26;1;1;
80692;PMS5003;70055;39.436;-77.514;2023-05-10T02:22:57;1;1;
80692;PMS5003;70055;39.436;-77.514;2023-05-10T02:25:26;1;1;
80692;PMS5003;70055;39.436;-77.514;2023-05-10T02:27:56;0;0;
80692;PMS5003;70055;39.436;-77.514;2023-05-10T02:30:26;0;0;
80692;PMS5003;70055;39.436;-77.514;2023-05-10T02:32:57;1;1;
80692;PMS5003;70055;39.436;-77.514;2023-05-10T02:35:25;2;2;
80692;PMS5003;70055;39.436;-77.514;2023-05-10T02:37:54;2;2;
80692;PMS5003;70055;39.436;-77.514;2023-05-10T02:40:24;1;1;
80692;PMS5003;70055;39.436;-77.514;2023-05-10T02:42:54;1;1;
80692;PMS5003;70055;39.436;-77.514;2023-05-10T02:45:24;1;1;
80692;PMS5003;70055;39.436;-77.514;2023-05-10T02:47:54;1;1;
80692;PMS5003;70055;39.436;-77.514;2023-05-10T02:50:23;1;1;
80692;PMS5003;70055;39.436;-77.514;2023-05-10T02:52:56;1;1;
80692;PMS5003;70055;39.436;-77.514;2023-05-10T02:55:31;2;2;
80692;PMS5003;70055;39.436;-77.514;2023-05-10T02:58:05;2;2;
80692;PMS5003;70055;39.436;-77.514;2023-05-10T03:00:34;1;1;
80692;PMS5003;70055;39.436;-77.514;2023-05-10T03:03:02;2;1;
80692;PMS5003;70055;39.436;-77.514;2023-05-10T03:05:29;2;2;
80692;PMS5003;70055;39.436;-77.514;2023-05-10T03:07:57;2;2;
80692;PMS5003;70055;39.436;-77.514;2023-05-10T03:10:27;2;2;
80692;PMS5003;70055;39.436;-77.514;2023-05-10T03:13:05;2;2;
80692;PMS5003;70055;39.436;-77.514;2023-05-10T03:15:42;1;1;
80692;PMS5003;70055;39.436;-77.514;2023-05-10T03:18:21;1;1;
80692;PMS5003;70055;39.436;-77.514;2023-05-10T03:20:56;1;1;
80692;PMS5003;70055;39.436;-77.514;2023-05-10T03:23:30;1;1;
80692;PMS5003;70055;39.436;-77.514;2023-05-10T03:26:01;0;0;
80692;PMS5003;70055;39.436;-77.514;2023-05-10T03:28:31;1;1;
80692;PMS5003;70055;39.436;-77.514;2023-05-10T03:31:00;1;1;
80692;PMS5003;70055;39.436;-77.514;2023-05-10T03:33:31;1;1;
80692;PMS5003;70055;39.436;-77.514;2023-05-10T03:35:59;1;1;
80692;PMS5003;70055;39.436;-77.514;2023-05-10T03:38:27;1;1;
80692;PMS5003;70055;39.436;-77.514;2023-05-10T03:40:55;1;1;
80692;PMS5003;70055;39.436;-77.514;2023-05-10T03:43:23;2;2;
80692;PMS5003;70055;39.436;-77.514;2023-05-10T03:45:51;1;1;
80692;PMS5003;70055;39.436;-77.514;2023-05-10T03:48:19;1;1;
80692;PMS5003;70055;39.436;-77.514;2023-05-10T03:50:47;2;1;
80692;PMS5003;70055;39.436;-77.514;2023-05-10T03:53:15;0;0;
80692;PMS5003;70055;39.436;-77.514;2023-05-10T03:55:43;1;1;
80692;PMS5003;70055;39.436;-77.514;2023-05-10T03:58:12;1;1;
80692;PMS5003;70055;39.436;-77.514;2023-05-10T04:00:40;1;1;
80692;PMS5003;70055;39.436;-77.514;2023-05-10T04:03:09;1;1;
80692;PMS5003;70055;39.436;-77.514;2023-05-10T04:05:37;2;2;
80692;PMS5003;70055;39.436;-77.514;2023-05-10T04:08:06;1;1;
80692;PMS5003;70055;39.436;-77.514;2023-05-10T04:10:34;0;0;
80692;PMS5003;70055;39.436;-77.514;2023-05-10T04:13:02;0;0;
80692;PMS5003;70055;39.436;-77.514;2023-05-10T04:15:30;1;1;
80692;PMS5003;70055;39.436;-77.514;2023-05-10T04:17:59;1;1;
80692;PMS5003;70055;39.436;-77.514;2023-05-10T04:20:27;2;2;
80692;PMS5003;70055;39.436;-77.514;2023-05-10T04:22:56;1;1;
80692;PMS5003;70055;39.436;-77.514;2023-05-10T04:25:23;1;1;
80692;PMS5003;70055;39.436;-77.514;2023-05-10T04:27:52;2;2;
80692;PMS5003;70055;39.436;-77.514;2023-05-10T04:30:20;1;1;
80692;PMS5003;70055;39.436;-77.514;2023-05-10T04:32:48;2;2;
80692;PMS5003;70055;39.436;-77.514;2023-05-10T04:35:15;1;1;
80692;PMS5003;70055;39.436;-77.514;2023-05-10T04:37:44;1;1;
80692;PMS5003;70055;39.436;-77.514;2023-05-10T04:40:12;0;0;
80692;PMS5003;70055;39.436;-77.514;2023-05-10T04:42:40;2;2;
80692;PMS5003;70055;39.436;-77.514;2023-05-10T04:45:08;1;1;
80692;PMS5003;70055;39.436;-77.514;2023-05-10T04:47:37;1;1;
80692;PMS5003;70055;39.436;-77.514;2023-05-10T04:50:05;1;1;
80692;PMS5003;70055;39.436;-77.514;2023-05-10T04:52:34;2;2;
80692;PMS5003;70055;39.436;-77.514;2023-05-10T04:55:02;1;1;
80692;PMS5003;70055;39.436;-77.514;2023-05-10T04:57:30;1;1;
80692;PMS5003;70055;39.436;-77.514;2023-05-10T04:59:58;2;2;
80692;PMS5003;70055;39.436;-77.514;2023-05-10T05:02:27;2;2;
80692;PMS5003;70055;39.436;-77.514;2023-05-10T05:04:55;1;1;
80692;PMS5003;70055;39.436;-77.514;2023-05-10T05:07:23;2;2;
80692;PMS5003;70055;39.436;-77.514;2023-05-10T05:09:51;1;1;
80692;PMS5003;70055;39.436;-77.514;2023-05-10T05:12:19;1;1;
80692;PMS5003;70055;39.436;-77.514;2023-05-10T05:14:47;2;2;
80692;PMS5003;70055;39.436;-77.514;2023-05-10T05:17:15;0;0;
80692;PMS5003;70055;39.436;-77.514;2023-05-10T05:19:43;1;1;
80692;PMS5003;70055;39.436;-77.514;2023-05-10T05:22:11;1;1;
80692;PMS5003;70055;39.436;-77.514;2023-05-10T05:24:39;1;1;
80692;PMS5003;70055;39.436;-77.514;2023-05-10T05:27:07;1;1;
80692;PMS5003;70055;39.436;-77.514;2023-05-10T05:29:35;0;0;
80692;PMS5003;70055;39.436;-77.514;2023-05-10T05:32:03;0;0;
80692;PMS5003;70055;39.436;-77.514;2023-05-10T05:34:31;0;0;
80692;PMS5003;70055;39.436;-77.514;2023-05-10T05:36:59;1;1;
80692;PMS5003;70055;39.436;-77.514;2023-05-10T05:39:27;1;1;
80692;PMS5003;70055;39.436;-77.514;2023-05-10T05:41:56;0;0;
80692;PMS5003;70055;39.436;-77.514;2023-05-10T05:44:24;0;0;
80692;PMS5003;70055;39.436;-77.514;2023-05-10T05:46:52;0;0;
80692;PMS5003;70055;39.436;-77.514;2023-05-10T05:49:20;1;1;
80692;PMS5003;70055;39.436;-77.514;2023-05-10T05:51:48;0;0;
80692;PMS5003;70055;39.436;-77.514;2023-05-10T05:54:15;1;1;
80692;PMS5003;70055;39.436;-77.514;2023-05-10T05:56:43;1;1;
80692;PMS5003;70055;39.436;-77.514;2023-05-10T05:59:11;1;1;
80692;PMS5003;70055;39.436;-77.514;2023-05-10T06:01:39;2;2;
80692;PMS5003;70055;39.436;-77.514;2023-05-10T06:04:08;1;1;
80692;PMS5003;70055;39.436;-77.514;2023-05-10T06:06:36;1;1;
80692;PMS5003;70055;39.436;-77.514;2023-05-10T06:09:04;0;0;
80692;PMS5003;70055;39.436;-77.514;2023-05-10T06:11:31;2;2;
80692;PMS5003;70055;39.436;-77.514;2023-05-10T06:13:59;0;0;
80692;PMS5003;70055;39.436;-77.514;2023-05-10T06:16:28;1;1;
80692;PMS5003;70055;39.436;-77.514;2023-05-10T06:18:56;0;0;
80692;PMS5003;70055;39.436;-77.514;2023-05-10T06:21:23;1;1;
80692;PMS5003;70055;39.436;-77.514;2023-05-10T06:23:51;0;0;
80692;PMS5003;70055;39.436;-77.514;2023-05-10T06:26:19;1;1;
80692;PMS5003;70055;39.436;-77.514;2023-05-10T06:28:47;0;0;
80692;PMS5003;70055;39.436;-77.514;2023-05-10T06:31:15;1;1;
80692;PMS5003;70055;39.436;-77.514;2023-05-10T06:33:42;2;2;
80692;PMS5003;70055;39.436;-77.514;2023-05-10T06:36:10;1;1;
80692;PMS5003;70055;39.436;-77.514;2023-05-10T06:38:38;1;1;
80692;PMS5003;70055;39.436;-77.514;2023-05-10T06:41:06;1;1;
80692;PMS5003;70055;39.436;-77.514;2023-05-10T06:43:34;2;2;
80692;PMS5003;70055;39.436;-77.514;2023-05-10T06:46:02;0;0;
80692;PMS5003;70055;39.436;-77.514;2023-05-10T06:48:30;1;1;
80692;PMS5003;70055;39.436;-77.514;2023-05-10T06:50:58;1;1;
80692;PMS5003;70055;39.436;-77.514;2023-05-10T06:53:26;1;1;
80692;PMS5003;70055;39.436;-77.514;2023-05-10T06:55:54;2;2;
80692;PMS5003;70055;39.436;-77.514;2023-05-10T06:58:22;1;1;
80692;PMS5003;70055;39.436;-77.514;2023-05-10T07:00:51;1;1;
80692;PMS5003;70055;39.436;-77.514;2023-05-10T07:03:18;3;3;
80692;PMS5003;70055;39.436;-77.514;2023-05-10T07:05:47;0;0;
80692;PMS5003;70055;39.436;-77.514;2023-05-10T07:08:15;1;1;
80692;PMS5003;70055;39.436;-77.514;2023-05-10T07:10:44;1;1;
80692;PMS5003;70055;39.436;-77.514;2023-05-10T07:13:11;1;1;
80692;PMS5003;70055;39.436;-77.514;2023-05-10T07:15:39;1;1;
80692;PMS5003;70055;39.436;-77.514;2023-05-10T07:18:07;0;0;
80692;PMS5003;70055;39.436;-77.514;2023-05-10T07:20:35;2;2;
80692;PMS5003;70055;39.436;-77.514;2023-05-10T07:23:03;1;1;
80692;PMS5003;70055;39.436;-77.514;2023-05-10T07:25:31;1;1;
80692;PMS5003;70055;39.436;-77.514;2023-05-10T07:27:59;1;1;
80692;PMS5003;70055;39.436;-77.514;2023-05-10T07:30:27;1;1;
80692;PMS5003;70055;39.436;-77.514;2023-05-10T07:32:56;3;1;
80692;PMS5003;70055;39.436;-77.514;2023-05-10T07:35:24;1;1;
80692;PMS5003;70055;39.436;-77.514;2023-05-10T07:37:52;1;1;
80692;PMS5003;70055;39.436;-77.514;2023-05-10T07:40:19;0;0;
80692;PMS5003;70055;39.436;-77.514;2023-05-10T07:42:47;1;1;
80692;PMS5003;70055;39.436;-77.514;2023-05-10T07:45:15;1;1;
80692;PMS5003;70055;39.436;-77.514;2023-05-10T07:47:44;2;2;
80692;PMS5003;70055;39.436;-77.514;2023-05-10T07:50:12;1;1;
80692;PMS5003;70055;39.436;-77.514;2023-05-10T07:52:40;1;1;
80692;PMS5003;70055;39.436;-77.514;2023-05-10T07:55:08;1;1;
80692;PMS5003;70055;39.436;-77.514;2023-05-10T07:57:37;1;1;
80692;PMS5003;70055;39.436;-77.514;2023-05-10T08:00:06;0;0;
80692;PMS5003;70055;39.436;-77.514;2023-05-10T08:02:35;1;1;
80692;PMS5003;70055;39.436;-77.514;2023-05-10T08:05:04;1;1;
80692;PMS5003;70055;39.436;-77.514;2023-05-10T08:07:32;2;1;
80692;PMS5003;70055;39.436;-77.514;2023-05-10T08:10:00;2;2;
80692;PMS5003;70055;39.436;-77.514;2023-05-10T08:12:28;1;1;
80692;PMS5003;70055;39.436;-77.514;2023-05-10T08:14:56;1;1;
80692;PMS5003;70055;39.436;-77.514;2023-05-10T08:17:24;0;0;
80692;PMS5003;70055;39.436;-77.514;2023-05-10T08:19:52;1;1;
80692;PMS5003;70055;39.436;-77.514;2023-05-10T08:22:20;1;1;
80692;PMS5003;70055;39.436;-77.514;2023-05-10T08:24:47;1;1;
80692;PMS5003;70055;39.436;-77.514;2023-05-10T08:27:15;1;1;
80692;PMS5003;70055;39.436;-77.514;2023-05-10T08:29:43;1;1;
80692;PMS5003;70055;39.436;-77.514;2023-05-10T08:32:12;1;1;
80692;PMS5003;70055;39.436;-77.514;2023-05-10T08:34:40;0;0;
80692;PMS5003;70055;39.436;-77.514;2023-05-10T08:37:07;1;1;
80692;PMS5003;70055;39.436;-77.514;2023-05-10T08:39:35;1;1;
80692;PMS5003;70055;39.436;-77.514;2023-05-10T08:42:04;1;1;
80692;PMS5003;70055;39.436;-77.514;2023-05-10T08:44:32;1;1;
80692;PMS5003;70055;39.436;-77.514;2023-05-10T08:47:04;1;1;
80692;PMS5003;70055;39.436;-77.514;2023-05-10T08:49:33;1;1;
80692;PMS5003;70055;39.436;-77.514;2023-05-10T08:52:03;1;1;
80692;PMS5003;70055;39.436;-77.514;2023-05-10T08:54:32;2;2;
80692;PMS5003;70055;39.436;-77.514;2023-05-10T08:57:01;1;1;
80692;PMS5003;70055;39.436;-77.514;2023-05-10T08:59:30;1;1;
80692;PMS5003;70055;39.436;-77.514;2023-05-10T09:01:59;2;2;
80692;PMS5003;70055;39.436;-77.514;2023-05-10T09:04:28;1;1;
80692;PMS5003;70055;39.436;-77.514;2023-05-10T09:06:57;2;1;
80692;PMS5003;70055;39.436;-77.514;2023-05-10T09:09:25;1;1;
80692;PMS5003;70055;39.436;-77.514;2023-05-10T09:11:55;2;2;
80692;PMS5003;70055;39.436;-77.514;2023-05-10T09:14:23;1;1;
80692;PMS5003;70055;39.436;-77.514;2023-05-10T09:16:52;2;2;
80692;PMS5003;70055;39.436;-77.514;2023-05-10T09:19:20;1;1;
80692;PMS5003;70055;39.436;-77.514;2023-05-10T09:21:49;0;0;
80692;PMS5003;70055;39.436;-77.514;2023-05-10T09:24:16;1;1;
80692;PMS5003;70055;39.436;-77.514;2023-05-10T09:26:47;1;1;
80692;PMS5003;70055;39.436;-77.514;2023-05-10T09:29:16;0;0;
80692;PMS5003;70055;39.436;-77.514;2023-05-10T09:31:45;2;2;
80692;PMS5003;70055;39.436;-77.514;2023-05-10T09:34:16;1;1;
80692;PMS5003;70055;39.436;-77.514;2023-05-10T09:36:53;1;1;
80692;PMS5003;70055;39.436;-77.514;2023-05-10T09:39:29;0;0;
80692;PMS5003;70055;39.436;-77.514;2023-05-10T09:41:59;2;1;
80692;PMS5003;70055;39.436;-77.514;2023-05-10T09:44:29;2;2;
80692;PMS5003;70055;39.436;-77.514;2023-05-10T09:46:57;0;0;
80692;PMS5003;70055;39.436;-77.514;2023-05-10T09:49:25;1;1;
80692;PMS5003;70055;39.436;-77.514;2023-05-10T09:52:02;1;1;
80692;PMS5003;70055;39.436;-77.514;2023-05-10T09:54:31;1;1;
80692;PMS5003;70055;39.436;-77.514;2023-05-10T09:57:00;2;2;
80692;PMS5003;70055;39.436;-77.514;2023-05-10T09:59:28;1;0;
80692;PMS5003;70055;39.436;-77.514;2023-05-10T10:01:57;1;1;
80692;PMS5003;70055;39.436;-77.514;2023-05-10T10:04:27;2;2;
80692;PMS5003;70055;39.436;-77.514;2023-05-10T10:07:03;2;2;
80692;PMS5003;70055;39.436;-77.514;2023-05-10T10:09:32;1;1;
80692;PMS5003;70055;39.436;-77.514;2023-05-10T10:12:02;3;2;
80692;PMS5003;70055;39.436;-77.514;2023-05-10T10:14:31;1;1;
80692;PMS5003;70055;39.436;-77.514;2023-05-10T10:17:01;0;0;
80692;PMS5003;70055;39.436;-77.514;2023-05-10T10:19:29;1;1;
80692;PMS5003;70055;39.436;-77.514;2023-05-10T10:21:59;1;1;
80692;PMS5003;70055;39.436;-77.514;2023-05-10T10:24:27;1;1;
80692;PMS5003;70055;39.436;-77.514;2023-05-10T10:26:56;1;1;
80692;PMS5003;70055;39.436;-77.514;2023-05-10T10:29:31;1;1;
80692;PMS5003;70055;39.436;-77.514;2023-05-10T10:32:06;1;1;
80692;PMS5003;70055;39.436;-77.514;2023-05-10T10:34:44;1;1;
80692;PMS5003;70055;39.436;-77.514;2023-05-10T10:37:13;2;2;
80692;PMS5003;70055;39.436;-77.514;2023-05-10T10:39:42;0;0;
80692;PMS5003;70055;39.436;-77.514;2023-05-10T10:42:10;1;1;
80692;PMS5003;70055;39.436;-77.514;2023-05-10T10:44:38;2;2;
80692;PMS5003;70055;39.436;-77.514;2023-05-10T10:47:07;2;2;
80692;PMS5003;70055;39.436;-77.514;2023-05-10T10:49:48;2;2;
80692;PMS5003;70055;39.436;-77.514;2023-05-10T10:52:23;1;1;
80692;PMS5003;70055;39.436;-77.514;2023-05-10T10:54:52;2;2;
80692;PMS5003;70055;39.436;-77.514;2023-05-10T10:57:25;2;2;
80692;PMS5003;70055;39.436;-77.514;2023-05-10T11:00:17;1;1;
80692;PMS5003;70055;39.436;-77.514;2023-05-10T11:02:47;1;1;
80692;PMS5003;70055;39.436;-77.514;2023-05-10T11:05:25;1;1;
80692;PMS5003;70055;39.436;-77.514;2023-05-10T11:08:07;1;1;
80692;PMS5003;70055;39.436;-77.514;2023-05-10T11:10:39;1;1;
80692;PMS5003;70055;39.436;-77.514;2023-05-10T11:13:16;1;1;
80692;PMS5003;70055;39.436;-77.514;2023-05-10T11:15:53;1;1;
80692;PMS5003;70055;39.436;-77.514;2023-05-10T11:18:23;1;1;
80692;PMS5003;70055;39.436;-77.514;2023-05-10T11:20:52;0;0;
80692;PMS5003;70055;39.436;-77.514;2023-05-10T11:23:29;1;1;
80692;PMS5003;70055;39.436;-77.514;2023-05-10T11:25:59;1;1;
80692;PMS5003;70055;39.436;-77.514;2023-05-10T11:28:27;0;0;
80692;PMS5003;70055;39.436;-77.514;2023-05-10T11:30:56;1;1;
80692;PMS5003;70055;39.436;-77.514;2023-05-10T11:33:24;1;1;
80692;PMS5003;70055;39.436;-77.514;2023-05-10T11:35:52;1;1;
80692;PMS5003;70055;39.436;-77.514;2023-05-10T11:38:20;0;0;
80692;PMS5003;70055;39.436;-77.514;2023-05-10T11:40:49;0;0;
80692;PMS5003;70055;39.436;-77.514;2023-05-10T11:43:19;1;1;
80692;PMS5003;70055;39.436;-77.514;2023-05-10T11:45:54;1;1;
80692;PMS5003;70055;39.436;-77.514;2023-05-10T11:48:22;0;0;
80692;PMS5003;70055;39.436;-77.514;2023-05-10T11:50:50;0;0;
80692;PMS5003;70055;39.436;-77.514;2023-05-10T11:53:19;0;0;
80692;PMS5003;70055;39.436;-77.514;2023-05-10T11:55:47;0;0;
80692;PMS5003;70055;39.436;-77.514;2023-05-10T11:58:17;1;1;
80692;PMS5003;70055;39.436;-77.514;2023-05-10T12:00:45;0;0;
80692;PMS5003;70055;39.436;-77.514;2023-05-10T12:03:14;1;1;
80692;PMS5003;70055;39.436;-77.514;2023-05-10T12:05:42;0;0;
80692;PMS5003;70055;39.436;-77.514;2023-05-10T12:08:11;0;0;
80692;PMS5003;70055;39.436;-77.514;2023-05-10T12:10:40;0;0;
80692;PMS5003;70055;39.436;-77.514;2023-05-10T12:13:11;0;0;
80692;PMS5003;70055;39.436;-77.514;2023-05-10T12:15:39;0;0;
80692;PMS5003;70055;39.436;-77.514;2023-05-10T12:18:08;1;1;
80692;PMS5003;70055;39.436;-77.514;2023-05-10T12:20:38;0;0;
80692;PMS5003;70055;39.436;-77.514;2023-05-10T12:23:08;0;0;
80692;PMS5003;70055;39.436;-77.514;2023-05-10T12:25:37;0;0;
80692;PMS5003;70055;39.436;-77.514;2023-05-10T12:28:05;1;1;
80692;PMS5003;70055;39.436;-77.514;2023-05-10T12:30:35;2;2;
80692;PMS5003;70055;39.436;-77.514;2023-05-10T12:33:07;1;1;
80692;PMS5003;70055;39.436;-77.514;2023-05-10T12:35:44;1;1;
80692;PMS5003;70055;39.436;-77.514;2023-05-10T12:38:29;1;1;
80692;PMS5003;70055;39.436;-77.514;2023-05-10T12:40:59;1;1;
80692;PMS5003;70055;39.436;-77.514;2023-05-10T12:43:28;0;0;
80692;PMS5003;70055;39.436;-77.514;2023-05-10T12:45:57;1;1;
80692;PMS5003;70055;39.436;-77.514;2023-05-10T12:48:30;0;0;
80692;PMS5003;70055;39.436;-77.514;2023-05-10T12:50:59;1;1;
80692;PMS5003;70055;39.436;-77.514;2023-05-10T12:53:28;2;2;
80692;PMS5003;70055;39.436;-77.514;2023-05-10T12:55:56;0;0;
80692;PMS5003;70055;39.436;-77.514;2023-05-10T12:58:25;1;1;
80692;PMS5003;70055;39.436;-77.514;2023-05-10T13:00:53;1;1;
80692;PMS5003;70055;39.436;-77.514;2023-05-10T13:03:21;1;1;
80692;PMS5003;70055;39.436;-77.514;2023-05-10T13:05:49;2;2;
80692;PMS5003;70055;39.436;-77.514;2023-05-10T13:08:17;1;1;
80692;PMS5003;70055;39.436;-77.514;2023-05-10T13:10:46;0;0;
80692;PMS5003;70055;39.436;-77.514;2023-05-10T13:13:13;1;1;
80692;PMS5003;70055;39.436;-77.514;2023-05-10T13:15:42;2;2;
80692;PMS5003;70055;39.436;-77.514;2023-05-10T13:18:10;0;0;
80692;PMS5003;70055;39.436;-77.514;2023-05-10T13:20:38;1;1;
80692;PMS5003;70055;39.436;-77.514;2023-05-10T13:23:05;1;1;
80692;PMS5003;70055;39.436;-77.514;2023-05-10T13:25:34;2;2;
80692;PMS5003;70055;39.436;-77.514;2023-05-10T13:28:03;0;0;
80692;PMS5003;70055;39.436;-77.514;2023-05-10T13:30:31;2;2;
80692;PMS5003;70055;39.436;-77.514;2023-05-10T13:32:59;2;2;
80692;PMS5003;70055;39.436;-77.514;2023-05-10T13:35:27;2;2;
80692;PMS5003;70055;39.436;-77.514;2023-05-10T13:37:56;1;1;
80692;PMS5003;70055;39.436;-77.514;2023-05-10T13:40:24;0;0;
80692;PMS5003;70055;39.436;-77.514;2023-05-10T13:42:52;1;1;
80692;PMS5003;70055;39.436;-77.514;2023-05-10T13:45:20;2;2;
80692;PMS5003;70055;39.436;-77.514;2023-05-10T13:47:49;1;1;
80692;PMS5003;70055;39.436;-77.514;2023-05-10T13:50:16;2;1;
80692;PMS5003;70055;39.436;-77.514;2023-05-10T13:52:44;0;0;
80692;PMS5003;70055;39.436;-77.514;2023-05-10T13:55:13;1;1;
80692;PMS5003;70055;39.436;-77.514;2023-05-10T13:57:41;2;2;
80692;PMS5003;70055;39.436;-77.514;2023-05-10T14:00:09;2;2;
80692;PMS5003;70055;39.436;-77.514;2023-05-10T14:02:37;1;1;
80692;PMS5003;70055;39.436;-77.514;2023-05-10T14:05:05;1;1;
80692;PMS5003;70055;39.436;-77.514;2023-05-10T14:07:34;2;1;
80692;PMS5003;70055;39.436;-77.514;2023-05-10T14:10:03;1;1;
80692;PMS5003;70055;39.436;-77.514;2023-05-10T14:12:36;2;2;
80692;PMS5003;70055;39.436;-77.514;2023-05-10T14:15:06;2;1;
80692;PMS5003;70055;39.436;-77.514;2023-05-10T14:17:35;1;1;
80692;PMS5003;70055;39.436;-77.514;2023-05-10T14:20:05;1;1;
80692;PMS5003;70055;39.436;-77.514;2023-05-10T14:22:34;0;0;
80692;PMS5003;70055;39.436;-77.514;2023-05-10T14:25:02;2;2;
80692;PMS5003;70055;39.436;-77.514;2023-05-10T14:27:31;1;1;
80692;PMS5003;70055;39.436;-77.514;2023-05-10T14:29:58;2;2;
80692;PMS5003;70055;39.436;-77.514;2023-05-10T14:32:26;2;2;
80692;PMS5003;70055;39.436;-77.514;2023-05-10T14:34:54;2;2;
80692;PMS5003;70055;39.436;-77.514;2023-05-10T14:37:23;2;2;
80692;PMS5003;70055;39.436;-77.514;2023-05-10T14:39:52;3;3;
80692;PMS5003;70055;39.436;-77.514;2023-05-10T14:42:19;2;2;
80692;PMS5003;70055;39.436;-77.514;2023-05-10T14:44:47;2;2;
80692;PMS5003;70055;39.436;-77.514;2023-05-10T14:47:15;2;2;
80692;PMS5003;70055;39.436;-77.514;2023-05-10T14:49:43;1;1;
80692;PMS5003;70055;39.436;-77.514;2023-05-10T14:52:11;3;2;
80692;PMS5003;70055;39.436;-77.514;2023-05-10T14:54:39;5;4;
80692;PMS5003;70055;39.436;-77.514;2023-05-10T14:57:07;4;4;
80692;PMS5003;70055;39.436;-77.514;2023-05-10T14:59:35;4;4;
80692;PMS5003;70055;39.436;-77.514;2023-05-10T15:02:03;3;2;
80692;PMS5003;70055;39.436;-77.514;2023-05-10T15:04:31;4;4;
80692;PMS5003;70055;39.436;-77.514;2023-05-10T15:06:59;3;3;
80692;PMS5003;70055;39.436;-77.514;2023-05-10T15:09:27;3;3;
80692;PMS5003;70055;39.436;-77.514;2023-05-10T15:11:57;3;3;
80692;PMS5003;70055;39.436;-77.514;2023-05-10T15:14:25;4;4;
80692;PMS5003;70055;39.436;-77.514;2023-05-10T15:16:54;1;1;
80692;PMS5003;70055;39.436;-77.514;2023-05-10T15:19:22;3;3;
80692;PMS5003;70055;39.436;-77.514;2023-05-10T15:21:51;22;21;
80692;PMS5003;70055;39.436;-77.514;2023-05-10T15:24:19;20;20;
80692;PMS5003;70055;39.436;-77.514;2023-05-10T15:26:48;23;22;
80692;PMS5003;70055;39.436;-77.514;2023-05-10T15:29:16;22;20;
80692;PMS5003;70055;39.436;-77.514;2023-05-10T15:31:44;22;21;
80692;PMS5003;70055;39.436;-77.514;2023-05-10T15:34:13;19;19;
80692;PMS5003;70055;39.436;-77.514;2023-05-10T15:36:41;16;16;
80692;PMS5003;70055;39.436;-77.514;2023-05-10T15:39:10;13;13;
80692;PMS5003;70055;39.436;-77.514;2023-05-10T15:41:38;16;15;
80692;PMS5003;70055;39.436;-77.514;2023-05-10T15:44:07;18;17;
80692;PMS5003;70055;39.436;-77.514;2023-05-10T15:46:35;17;17;
80692;PMS5003;70055;39.436;-77.514;2023-05-10T15:49:03;14;14;
80692;PMS5003;70055;39.436;-77.514;2023-05-10T15:51:32;18;18;
80692;PMS5003;70055;39.436;-77.514;2023-05-10T15:54:00;15;14;
80692;PMS5003;70055;39.436;-77.514;2023-05-10T15:56:28;15;15;
80692;PMS5003;70055;39.436;-77.514;2023-05-10T15:58:57;16;16;
80692;PMS5003;70055;39.436;-77.514;2023-05-10T16:01:25;11;11;
80692;PMS5003;70055;39.436;-77.514;2023-05-10T16:03:53;11;11;
80692;PMS5003;70055;39.436;-77.514;2023-05-10T16:06:21;10;10;
80692;PMS5003;70055;39.436;-77.514;2023-05-10T16:08:49;13;13;
80692;PMS5003;70055;39.436;-77.514;2023-05-10T16:11:18;10;10;
80692;PMS5003;70055;39.436;-77.514;2023-05-10T16:13:47;13;13;
80692;PMS5003;70055;39.436;-77.514;2023-05-10T16:16:15;9;9;
80692;PMS5003;70055;39.436;-77.514;2023-05-10T16:18:43;11;11;
80692;PMS5003;70055;39.436;-77.514;2023-05-10T16:21:11;12;11;
80692;PMS5003;70055;39.436;-77.514;2023-05-10T16:23:39;10;10;
80692;PMS5003;70055;39.436;-77.514;2023-05-10T16:26:08;12;11;
80692;PMS5003;70055;39.436;-77.514;2023-05-10T16:28:36;13;13;
80692;PMS5003;70055;39.436;-77.514;2023-05-10T16:31:04;13;12;